createdAt,value
2022-12-24T00:00:22.955Z,46.40
2022-12-24T00:01:07.812Z,47.88
2022-12-24T00:01:48.070Z,50.26
2022-12-24T00:02:28.822Z,49.51
2022-12-24T00:03:10.132Z,47.28
2022-12-24T00:03:57.782Z,46.84
2022-12-24T00:04:37.861Z,49.89
2022-12-24T00:05:18.898Z,50.33
2022-12-24T00:05:58.955Z,48.36
2022-12-24T00:06:39.783Z,48.19
2022-12-24T00:07:19.827Z,46.80
2022-12-24T00:08:00.818Z,46.29
2022-12-24T00:08:42.839Z,47.26
2022-12-24T00:09:23.732Z,45.84
2022-12-24T00:10:03.835Z,45.90
2022-12-24T00:10:44.772Z,44.67
2022-12-24T00:11:25.757Z,46.88
2022-12-24T00:12:06.726Z,47.05
2022-12-24T00:12:47.809Z,44.66
2022-12-24T00:13:28.742Z,45.66
2022-12-24T00:14:08.911Z,44.61
2022-12-24T00:14:48.738Z,43.58
2022-12-24T00:15:28.796Z,44.53
2022-12-24T00:16:09.824Z,45.31
2022-12-24T00:16:49.949Z,44.95
2022-12-24T00:17:30.810Z,43.88
2022-12-24T00:18:11.824Z,44.53
2022-12-24T00:18:51.738Z,45.09
2022-12-24T00:19:31.948Z,43.69
2022-12-24T00:20:13.722Z,48.20
2022-12-24T00:20:55.784Z,45.85
2022-12-24T00:21:35.759Z,46.90
2022-12-24T00:22:16.780Z,50.49
2022-12-24T00:22:57.734Z,50.54
2022-12-24T00:23:37.767Z,52.21
2022-12-24T00:24:17.695Z,50.99
2022-12-24T00:24:57.807Z,50.21
2022-12-24T00:25:38.711Z,52.33
2022-12-24T00:26:20.977Z,54.58
2022-12-24T00:27:01.704Z,53.66
2022-12-24T00:27:41.787Z,53.03
2022-12-24T00:28:22.749Z,54.70
2022-12-24T00:29:02.836Z,54.39
2022-12-24T00:29:43.687Z,55.88
2022-12-24T00:30:23.801Z,57.74
2022-12-24T00:31:04.761Z,58.40
2022-12-24T00:31:45.786Z,60.90
2022-12-24T00:32:26.834Z,63.16
2022-12-24T00:33:06.854Z,63.38
2022-12-24T00:33:47.735Z,79.16
2022-12-24T00:34:30.861Z,124.34
2022-12-24T00:35:11.701Z,163.21
2022-12-24T00:35:51.759Z,144.75
2022-12-24T00:36:32.758Z,144.11
2022-12-24T00:37:13.758Z,164.27
2022-12-24T00:37:55.721Z,168.71
2022-12-24T00:38:35.757Z,138.77
2022-12-24T00:39:16.695Z,120.28
2022-12-24T00:39:56.783Z,116.35
2022-12-24T00:40:37.747Z,115.11
2022-12-24T00:41:26.422Z,113.59
2022-12-24T00:42:06.693Z,104.84
2022-12-24T00:42:46.802Z,96.07
2022-12-24T00:43:26.710Z,95.24
2022-12-24T00:44:10.822Z,92.44
2022-12-24T00:44:50.715Z,80.65
2022-12-24T00:45:27.840Z,72.59
2022-12-24T00:46:15.840Z,66.84
2022-12-24T00:46:49.778Z,68.94
2022-12-24T00:47:36.713Z,64.19
2022-12-24T00:48:10.831Z,62.42
2022-12-24T00:48:52.786Z,56.99
2022-12-24T00:49:26.798Z,49.13
2022-12-24T00:50:02.331Z,47.78
2022-12-24T00:50:42.681Z,47.74
2022-12-24T00:51:16.902Z,47.11
2022-12-24T00:51:50.623Z,48.45
2022-12-24T00:52:30.658Z,45.17
2022-12-24T00:53:04.741Z,42.85
2022-12-24T00:53:38.413Z,42.56
2022-12-24T00:54:20.761Z,43.25
2022-12-24T00:54:54.755Z,43.08
2022-12-24T00:55:28.449Z,44.15
2022-12-24T00:56:09.678Z,46.44
2022-12-24T00:56:43.812Z,45.95
2022-12-24T00:57:17.467Z,47.40
2022-12-24T00:57:57.673Z,47.25
2022-12-24T00:58:31.832Z,49.56
2022-12-24T00:59:05.381Z,49.42
2022-12-24T00:59:46.708Z,48.26
2022-12-24T01:00:20.789Z,49.78
2022-12-24T01:00:54.511Z,48.51
2022-12-24T01:01:35.913Z,46.14
2022-12-24T01:02:09.957Z,46.69
2022-12-24T01:02:44.771Z,47.08
2022-12-24T01:03:25.734Z,47.88
2022-12-24T01:04:20.504Z,47.55
2022-12-24T01:05:18.724Z,44.90
2022-12-24T01:05:58.728Z,46.50
2022-12-24T01:06:38.682Z,46.00
2022-12-24T01:07:19.135Z,44.55
2022-12-24T01:08:00.676Z,45.03
2022-12-24T01:08:42.730Z,44.54
2022-12-24T01:09:22.685Z,45.40
2022-12-24T01:10:03.759Z,41.31
2022-12-24T01:10:44.743Z,40.86
2022-12-24T01:11:25.729Z,42.38
2022-12-24T01:12:05.675Z,41.88
2022-12-24T01:12:45.755Z,43.11
2022-12-24T01:13:28.330Z,43.45
2022-12-24T01:14:08.720Z,43.34
2022-12-24T01:14:49.686Z,42.21
2022-12-24T01:15:29.767Z,43.39
2022-12-24T01:16:10.744Z,45.90
2022-12-24T01:16:50.736Z,42.38
2022-12-24T01:17:30.648Z,41.50
2022-12-24T01:18:10.693Z,42.47
2022-12-24T01:18:50.684Z,41.31
2022-12-24T01:19:31.731Z,40.13
2022-12-24T01:20:15.694Z,40.05
2022-12-24T01:21:08.964Z,40.63
2022-12-24T01:21:48.708Z,42.14
2022-12-24T01:22:28.739Z,40.56
2022-12-24T01:23:08.669Z,40.35
2022-12-24T01:23:50.129Z,42.39
2022-12-24T01:24:30.676Z,42.49
2022-12-24T01:25:11.973Z,40.85
2022-12-24T01:25:53.674Z,40.04
2022-12-24T01:26:33.830Z,39.88
2022-12-24T01:27:14.701Z,40.92
2022-12-24T01:27:54.723Z,40.06
2022-12-24T01:28:34.668Z,41.40
2022-12-24T01:29:15.693Z,41.45
2022-12-24T01:29:55.643Z,41.39
2022-12-24T01:30:35.756Z,41.08
2022-12-24T01:31:24.821Z,41.95
2022-12-24T01:32:04.740Z,42.09
2022-12-24T01:32:44.661Z,43.13
2022-12-24T01:33:24.729Z,45.53
2022-12-24T01:34:05.654Z,46.83
2022-12-24T01:34:45.677Z,46.67
2022-12-24T01:35:25.686Z,48.76
2022-12-24T01:36:10.961Z,50.01
2022-12-24T01:36:51.647Z,51.25
2022-12-24T01:37:32.710Z,51.69
2022-12-24T01:38:12.629Z,49.58
2022-12-24T01:38:52.712Z,49.15
2022-12-24T01:39:33.626Z,49.65
2022-12-24T01:40:34.261Z,50.55
2022-12-24T01:41:41.690Z,48.10
2022-12-24T01:42:47.502Z,48.09
2022-12-24T01:43:34.701Z,49.03
2022-12-24T01:44:36.995Z,49.01
2022-12-24T01:46:06.646Z,49.88
2022-12-24T01:46:46.828Z,49.14
2022-12-24T01:47:34.620Z,47.47
2022-12-24T01:48:22.736Z,46.41
2022-12-24T01:49:10.627Z,46.90
2022-12-24T01:50:10.697Z,46.38
2022-12-24T01:50:51.639Z,47.69
2022-12-24T01:52:11.786Z,47.03
2022-12-24T01:52:51.648Z,46.84
2022-12-24T01:53:31.673Z,47.85
2022-12-24T01:54:36.640Z,48.56
2022-12-24T01:55:22.743Z,45.94
2022-12-24T01:56:02.610Z,44.19
2022-12-24T01:56:45.679Z,44.06
2022-12-24T01:57:31.649Z,43.39
2022-12-24T01:58:13.916Z,44.70
2022-12-24T01:58:57.615Z,44.01
2022-12-24T01:59:46.694Z,44.03
2022-12-24T02:00:21.565Z,43.39
2022-12-24T02:01:08.732Z,42.35
2022-12-24T02:01:42.539Z,44.17
2022-12-24T02:02:30.788Z,43.90
2022-12-24T02:03:05.658Z,43.25
2022-12-24T02:03:52.687Z,42.34
2022-12-24T02:04:42.298Z,43.45
2022-12-24T02:05:31.655Z,42.89
2022-12-24T02:06:06.666Z,42.94
2022-12-24T02:06:40.316Z,42.85
2022-12-24T02:07:21.602Z,42.16
2022-12-24T02:07:56.796Z,42.21
2022-12-24T02:08:39.962Z,40.35
2022-12-24T02:09:21.601Z,40.33
2022-12-24T02:09:57.700Z,42.08
2022-12-24T02:10:31.453Z,41.95
2022-12-24T02:11:27.673Z,43.76
2022-12-24T02:12:01.828Z,42.71
2022-12-24T02:12:49.597Z,40.14
2022-12-24T02:13:26.845Z,40.51
2022-12-24T02:14:15.625Z,40.71
2022-12-24T02:14:49.700Z,41.54
2022-12-24T02:16:16.640Z,40.92
2022-12-24T02:17:32.622Z,40.01
2022-12-24T02:18:53.599Z,44.15
2022-12-24T02:20:24.621Z,46.21
2022-12-24T02:21:52.608Z,45.13
2022-12-24T02:23:39.642Z,43.00
2022-12-24T02:25:14.595Z,45.09
2022-12-24T02:26:46.571Z,44.31
2022-12-24T02:27:53.608Z,43.81
2022-12-24T02:29:15.609Z,45.28
2022-12-24T02:30:21.605Z,44.53
2022-12-24T02:31:22.660Z,42.86
2022-12-24T02:32:41.628Z,43.61
2022-12-24T02:34:11.607Z,45.63
2022-12-24T02:35:01.607Z,44.85
2022-12-24T02:35:58.716Z,44.71
2022-12-24T02:36:49.564Z,54.40
2022-12-24T02:37:38.727Z,72.46
2022-12-24T02:38:38.585Z,97.39
2022-12-24T02:39:45.661Z,110.21
2022-12-24T02:40:36.573Z,101.36
2022-12-24T02:42:02.588Z,97.79
2022-12-24T02:42:48.522Z,95.05
2022-12-24T02:43:32.647Z,93.31
2022-12-24T02:44:13.593Z,85.99
2022-12-24T02:45:06.654Z,69.95
2022-12-24T02:45:53.720Z,64.72
2022-12-24T02:46:38.748Z,55.05
2022-12-24T02:47:21.600Z,54.16
2022-12-24T02:48:02.642Z,53.96
2022-12-24T02:48:44.520Z,52.76
2022-12-24T02:49:24.629Z,51.96
2022-12-24T02:50:08.530Z,45.64
2022-12-24T02:51:12.591Z,43.83
2022-12-24T02:52:06.577Z,44.29
2022-12-24T02:53:01.530Z,42.51
2022-12-24T02:53:55.561Z,42.60
2022-12-24T02:54:49.530Z,43.17
2022-12-24T02:55:57.560Z,45.47
2022-12-24T02:57:01.582Z,48.19
2022-12-24T02:58:16.633Z,47.61
2022-12-24T02:59:40.533Z,49.97
2022-12-24T03:00:25.812Z,46.42
2022-12-24T03:01:24.577Z,46.29
2022-12-24T03:02:38.073Z,44.39
2022-12-24T03:03:49.584Z,43.67
2022-12-24T03:05:21.566Z,40.51
2022-12-24T03:06:37.540Z,37.78
2022-12-24T03:08:07.553Z,38.13
2022-12-24T03:09:20.495Z,37.35
2022-12-24T03:10:26.544Z,35.03
2022-12-24T03:11:24.571Z,34.19
2022-12-24T03:12:30.535Z,32.05
2022-12-24T03:13:29.542Z,31.38
2022-12-24T03:14:23.518Z,34.63
2022-12-24T03:15:19.532Z,36.91
2022-12-24T03:16:14.605Z,37.14
2022-12-24T03:17:11.550Z,34.29
2022-12-24T03:18:09.524Z,33.49
2022-12-24T03:18:54.569Z,45.39
2022-12-24T03:19:36.701Z,50.86
2022-12-24T03:20:18.527Z,50.04
2022-12-24T03:21:14.669Z,46.85
2022-12-24T03:21:55.512Z,37.58
2022-12-24T03:22:39.706Z,33.88
2022-12-24T03:23:20.523Z,34.59
2022-12-24T03:24:08.541Z,35.44
2022-12-24T03:25:02.539Z,33.31
2022-12-24T03:25:58.557Z,32.89
2022-12-24T03:26:45.608Z,32.60
2022-12-24T03:27:25.514Z,31.99
2022-12-24T03:28:07.591Z,33.22
2022-12-24T03:28:49.529Z,33.39
2022-12-24T03:29:29.551Z,32.56
2022-12-24T03:30:04.639Z,32.50
2022-12-24T03:30:55.548Z,33.38
2022-12-24T03:31:30.607Z,33.11
2022-12-24T03:32:17.503Z,32.26
2022-12-24T03:32:51.608Z,30.88
2022-12-24T03:33:38.489Z,30.95
2022-12-24T03:34:12.600Z,31.46
2022-12-24T03:34:52.525Z,30.05
2022-12-24T03:35:32.670Z,29.54
2022-12-24T03:36:14.517Z,29.77
2022-12-24T03:36:55.653Z,29.26
2022-12-24T03:37:36.545Z,29.95
2022-12-24T03:38:16.663Z,30.15
2022-12-24T03:38:56.519Z,29.92
2022-12-24T03:39:37.599Z,29.40
2022-12-24T03:40:18.518Z,29.64
2022-12-24T03:40:58.633Z,29.64
2022-12-24T03:41:38.566Z,25.52
2022-12-24T03:42:21.517Z,23.94
2022-12-24T03:43:01.514Z,24.73
2022-12-24T03:43:41.564Z,25.26
2022-12-24T03:44:22.519Z,24.71
2022-12-24T03:45:02.609Z,24.54
2022-12-24T03:45:43.691Z,25.59
2022-12-24T03:46:23.595Z,25.39
2022-12-24T03:47:03.512Z,23.84
2022-12-24T03:47:43.571Z,22.01
2022-12-24T03:48:29.017Z,22.26
2022-12-24T03:49:12.577Z,22.05
2022-12-24T03:49:53.506Z,21.05
2022-12-24T03:50:33.591Z,20.50
2022-12-24T03:51:25.528Z,20.29
2022-12-24T03:52:05.586Z,20.56
2022-12-24T03:52:45.511Z,20.91
2022-12-24T03:53:25.568Z,21.10
2022-12-24T03:54:06.472Z,22.00
2022-12-24T03:54:46.562Z,21.84
2022-12-24T03:55:26.466Z,22.54
2022-12-24T03:56:06.539Z,22.71
2022-12-24T03:56:46.502Z,25.26
2022-12-24T03:57:26.590Z,23.88
2022-12-24T03:58:06.484Z,25.24
2022-12-24T03:58:47.998Z,25.79
2022-12-24T03:59:28.506Z,28.16
2022-12-24T04:00:11.712Z,33.19
2022-12-24T04:00:51.510Z,34.30
2022-12-24T04:01:32.155Z,35.95
2022-12-24T04:02:13.625Z,34.85
2022-12-24T04:02:54.773Z,35.21
2022-12-24T04:03:34.489Z,36.76
2022-12-24T04:04:14.627Z,33.97
2022-12-24T04:04:54.488Z,32.27
2022-12-24T04:05:34.586Z,32.15
2022-12-24T04:06:18.492Z,31.35
2022-12-24T04:06:58.530Z,26.81
2022-12-24T04:07:40.499Z,27.69
2022-12-24T04:08:20.526Z,36.04
2022-12-24T04:09:00.472Z,36.20
2022-12-24T04:09:40.645Z,30.79
2022-12-24T04:10:22.494Z,28.31
2022-12-24T04:11:09.334Z,25.34
2022-12-24T04:11:50.474Z,24.36
2022-12-24T04:12:30.525Z,24.59
2022-12-24T04:13:10.496Z,24.83
2022-12-24T04:13:50.538Z,23.70
2022-12-24T04:14:30.470Z,24.09
2022-12-24T04:15:11.583Z,24.49
2022-12-24T04:15:51.462Z,23.48
2022-12-24T04:16:32.637Z,23.42
2022-12-24T04:17:13.502Z,26.74
2022-12-24T04:17:53.622Z,24.81
2022-12-24T04:18:34.477Z,20.48
2022-12-24T04:19:14.539Z,20.44
2022-12-24T04:19:55.464Z,20.60
2022-12-24T04:20:35.907Z,20.73
2022-12-24T04:21:16.642Z,18.85
2022-12-24T04:21:56.559Z,18.21
2022-12-24T04:22:36.460Z,19.17
2022-12-24T04:23:16.559Z,21.24
2022-12-24T04:23:57.500Z,24.24
2022-12-24T04:24:37.555Z,23.31
2022-12-24T04:25:18.461Z,24.00
2022-12-24T04:25:59.593Z,25.35
2022-12-24T04:26:39.456Z,26.26
2022-12-24T04:27:28.397Z,28.91
2022-12-24T04:28:11.474Z,33.67
2022-12-24T04:28:51.572Z,34.05
2022-12-24T04:29:32.471Z,35.79
2022-12-24T04:30:15.585Z,35.95
2022-12-24T04:30:55.458Z,35.90
2022-12-24T04:31:35.614Z,33.94
2022-12-24T04:32:16.558Z,34.89
2022-12-24T04:32:56.515Z,32.56
2022-12-24T04:33:37.464Z,30.83
2022-12-24T04:34:17.584Z,32.63
2022-12-24T04:34:57.476Z,34.36
2022-12-24T04:35:37.529Z,34.49
2022-12-24T04:36:21.462Z,32.25
2022-12-24T04:37:01.526Z,30.98
2022-12-24T04:37:42.457Z,31.99
2022-12-24T04:38:22.523Z,30.88
2022-12-24T04:39:03.427Z,31.26
2022-12-24T04:39:43.702Z,28.61
2022-12-24T04:40:23.463Z,29.19
2022-12-24T04:41:24.324Z,28.98
2022-12-24T04:42:04.448Z,27.91
2022-12-24T04:42:44.747Z,26.27
2022-12-24T04:43:25.431Z,27.99
2022-12-24T04:44:06.655Z,28.65
2022-12-24T04:44:46.466Z,27.54
2022-12-24T04:45:34.565Z,28.90
2022-12-24T04:46:32.431Z,29.27
2022-12-24T04:47:26.467Z,30.09
2022-12-24T04:48:20.433Z,32.15
2022-12-24T04:49:14.430Z,31.23
2022-12-24T04:50:08.489Z,30.52
2022-12-24T04:50:55.468Z,28.63
2022-12-24T04:51:30.582Z,29.39
2022-12-24T04:52:17.439Z,30.21
2022-12-24T04:52:51.757Z,30.51
2022-12-24T04:53:39.445Z,29.81
2022-12-24T04:54:13.577Z,28.15
2022-12-24T04:55:01.438Z,29.17
2022-12-24T04:55:35.610Z,29.30
2022-12-24T04:56:38.495Z,29.26
2022-12-24T04:57:19.583Z,30.34
2022-12-24T04:58:00.437Z,30.11
2022-12-24T04:58:41.490Z,32.05
2022-12-24T04:59:21.426Z,33.14
2022-12-24T05:00:01.503Z,32.25
2022-12-24T05:00:41.442Z,29.65
2022-12-24T05:01:26.651Z,27.46
2022-12-24T05:02:07.532Z,29.35
2022-12-24T05:02:47.606Z,30.86
2022-12-24T05:03:28.513Z,28.05
2022-12-24T05:04:08.744Z,27.67
2022-12-24T05:04:48.422Z,27.11
2022-12-24T05:05:28.475Z,24.88
2022-12-24T05:06:14.409Z,26.50
2022-12-24T05:06:54.493Z,26.83
2022-12-24T05:07:34.421Z,34.20
2022-12-24T05:08:14.527Z,46.49
2022-12-24T05:08:55.427Z,52.83
2022-12-24T05:09:35.506Z,54.06
2022-12-24T05:10:17.445Z,48.17
2022-12-24T05:11:05.483Z,42.01
2022-12-24T05:11:46.406Z,35.89
2022-12-24T05:12:26.469Z,26.74
2022-12-24T05:13:07.491Z,24.20
2022-12-24T05:13:51.521Z,23.17
2022-12-24T05:14:31.444Z,22.94
2022-12-24T05:15:12.563Z,24.34
2022-12-24T05:15:52.423Z,28.31
2022-12-24T05:16:32.459Z,34.72
2022-12-24T05:17:13.495Z,39.36
2022-12-24T05:17:53.495Z,40.49
2022-12-24T05:18:33.428Z,42.80
2022-12-24T05:19:13.448Z,42.58
2022-12-24T05:19:54.396Z,41.03
2022-12-24T05:20:34.509Z,42.64
2022-12-24T05:21:17.412Z,40.25
2022-12-24T05:22:16.052Z,36.64
2022-12-24T05:23:15.444Z,36.76
2022-12-24T05:24:14.421Z,33.33
2022-12-24T05:25:06.738Z,30.85
2022-12-24T05:26:12.386Z,29.91
2022-12-24T05:26:59.528Z,29.64
2022-12-24T05:27:51.110Z,28.08
2022-12-24T05:28:25.488Z,25.85
2022-12-24T05:29:13.400Z,26.00
2022-12-24T05:29:54.384Z,26.16
2022-12-24T05:30:48.516Z,24.91
2022-12-24T05:31:46.413Z,24.19
2022-12-24T05:32:40.418Z,24.30
2022-12-24T05:33:34.413Z,25.34
2022-12-24T05:34:30.428Z,25.92
2022-12-24T05:35:24.414Z,24.60
2022-12-24T05:36:19.388Z,23.44
2022-12-24T05:37:13.400Z,24.38
2022-12-24T05:38:12.413Z,25.04
2022-12-24T05:39:11.624Z,24.90
2022-12-24T05:39:56.430Z,25.60
2022-12-24T05:40:36.531Z,26.17
2022-12-24T05:41:17.404Z,24.34
2022-12-24T05:41:57.481Z,24.71
2022-12-24T05:42:37.404Z,24.99
2022-12-24T05:43:17.462Z,24.98
2022-12-24T05:43:58.364Z,24.96
2022-12-24T05:44:38.471Z,24.86
2022-12-24T05:45:19.383Z,25.73
2022-12-24T05:46:08.467Z,28.17
2022-12-24T05:46:49.385Z,29.31
2022-12-24T05:47:29.435Z,28.94
2022-12-24T05:48:09.375Z,26.86
2022-12-24T05:48:49.460Z,27.54
2022-12-24T05:49:29.380Z,28.05
2022-12-24T05:50:09.448Z,27.66
2022-12-24T05:50:49.373Z,29.40
2022-12-24T05:51:30.457Z,30.63
2022-12-24T05:52:11.384Z,28.04
2022-12-24T05:52:52.485Z,28.91
2022-12-24T05:53:32.445Z,30.40
2022-12-24T05:54:13.597Z,31.61
2022-12-24T05:54:53.367Z,30.31
2022-12-24T05:55:33.482Z,30.36
2022-12-24T05:56:23.376Z,30.14
2022-12-24T05:57:03.442Z,30.84
2022-12-24T05:57:43.407Z,31.79
2022-12-24T05:58:23.532Z,31.00
2022-12-24T05:59:04.361Z,31.14
2022-12-24T05:59:44.466Z,29.83
2022-12-24T06:00:25.378Z,30.14
2022-12-24T06:01:05.599Z,31.34
2022-12-24T06:01:45.496Z,31.29
2022-12-24T06:02:25.620Z,30.49
2022-12-24T06:03:05.436Z,29.40
2022-12-24T06:03:46.624Z,28.45
2022-12-24T06:04:29.324Z,29.17
2022-12-24T06:05:11.738Z,28.56
2022-12-24T06:05:51.387Z,27.88
2022-12-24T06:06:34.563Z,28.74
2022-12-24T06:07:15.419Z,28.30
2022-12-24T06:07:55.463Z,28.66
2022-12-24T06:08:37.347Z,27.98
2022-12-24T06:09:17.688Z,28.42
2022-12-24T06:09:57.370Z,29.44
2022-12-24T06:10:37.529Z,30.91
2022-12-24T06:11:22.414Z,30.94
2022-12-24T06:12:02.464Z,31.89
2022-12-24T06:12:43.515Z,32.78
2022-12-24T06:13:24.431Z,33.05
2022-12-24T06:14:04.348Z,32.75
2022-12-24T06:14:44.431Z,35.54
2022-12-24T06:15:25.356Z,39.01
2022-12-24T06:16:07.517Z,36.51
2022-12-24T06:16:48.367Z,35.26
2022-12-24T06:17:28.472Z,36.47
2022-12-24T06:18:08.428Z,36.50
2022-12-24T06:18:49.446Z,36.96
2022-12-24T06:19:30.364Z,36.63
2022-12-24T06:20:12.525Z,37.35
2022-12-24T06:20:53.348Z,35.38
2022-12-24T06:21:33.429Z,34.96
2022-12-24T06:22:14.350Z,35.20
2022-12-24T06:22:54.604Z,35.84
2022-12-24T06:23:38.367Z,35.34
2022-12-24T06:24:18.411Z,35.63
2022-12-24T06:24:59.353Z,34.61
2022-12-24T06:25:39.451Z,34.71
2022-12-24T06:26:26.349Z,32.89
2022-12-24T06:27:07.455Z,32.85
2022-12-24T06:27:48.413Z,32.35
2022-12-24T06:28:28.609Z,31.16
2022-12-24T06:29:09.371Z,31.06
2022-12-24T06:29:49.611Z,33.60
2022-12-24T06:30:31.408Z,32.90
2022-12-24T06:31:13.675Z,32.72
2022-12-24T06:31:54.368Z,33.47
2022-12-24T06:32:34.626Z,33.15
2022-12-24T06:33:15.353Z,34.84
2022-12-24T06:33:55.514Z,35.47
2022-12-24T06:34:35.356Z,33.00
2022-12-24T06:35:15.370Z,32.20
2022-12-24T06:35:55.319Z,32.08
2022-12-24T06:36:35.473Z,31.20
2022-12-24T06:37:24.322Z,31.19
2022-12-24T06:38:04.388Z,29.98
2022-12-24T06:38:44.328Z,30.85
2022-12-24T06:39:24.394Z,30.08
2022-12-24T06:40:04.334Z,29.08
2022-12-24T06:40:49.427Z,28.30
2022-12-24T06:41:30.326Z,28.13
2022-12-24T06:42:10.454Z,28.16
2022-12-24T06:42:50.294Z,28.19
2022-12-24T06:43:30.534Z,27.77
2022-12-24T06:44:11.303Z,27.44
2022-12-24T06:44:51.720Z,26.99
2022-12-24T06:45:32.400Z,27.17
2022-12-24T06:46:12.665Z,27.33
2022-12-24T06:46:53.358Z,26.81
2022-12-24T06:47:33.439Z,26.79
2022-12-24T06:48:14.310Z,26.01
2022-12-24T06:48:55.443Z,25.21
2022-12-24T06:49:36.342Z,26.13
2022-12-24T06:50:16.464Z,27.21
2022-12-24T06:50:56.323Z,25.59
2022-12-24T06:51:30.102Z,25.96
2022-12-24T06:52:18.338Z,26.17
2022-12-24T06:52:52.568Z,25.51
2022-12-24T06:53:46.333Z,25.59
2022-12-24T06:54:40.292Z,26.51
2022-12-24T06:55:34.299Z,30.41
2022-12-24T06:56:21.345Z,34.50
2022-12-24T06:56:57.864Z,36.64
2022-12-24T06:57:48.279Z,35.74
2022-12-24T06:58:24.450Z,60.54
2022-12-24T06:59:11.350Z,50.45
2022-12-24T06:59:45.392Z,32.29
2022-12-24T07:00:33.314Z,30.89
2022-12-24T07:01:12.477Z,29.42
2022-12-24T07:01:53.413Z,28.81
2022-12-24T07:02:34.607Z,27.93
2022-12-24T07:03:15.358Z,27.39
2022-12-24T07:03:55.589Z,26.86
2022-12-24T07:04:36.351Z,27.21
2022-12-24T07:05:18.559Z,25.24
2022-12-24T07:05:59.326Z,23.26
2022-12-24T07:06:39.418Z,23.37
2022-12-24T07:07:20.412Z,22.65
2022-12-24T07:08:01.764Z,22.09
2022-12-24T07:08:43.335Z,22.24
2022-12-24T07:09:26.055Z,20.09
2022-12-24T07:10:07.296Z,19.49
2022-12-24T07:10:53.780Z,18.25
2022-12-24T07:11:34.327Z,18.96
2022-12-24T07:12:14.407Z,17.81
2022-12-24T07:12:55.313Z,16.49
2022-12-24T07:13:35.382Z,16.77
2022-12-24T07:14:16.327Z,16.20
2022-12-24T07:14:56.364Z,15.80
2022-12-24T07:15:37.323Z,15.61
2022-12-24T07:16:17.749Z,15.41
2022-12-24T07:16:59.598Z,15.74
2022-12-24T07:17:40.438Z,17.26
2022-12-24T07:18:20.380Z,18.83
2022-12-24T07:19:01.438Z,16.54
2022-12-24T07:19:42.319Z,15.90
2022-12-24T07:20:22.359Z,16.17
2022-12-24T07:21:02.285Z,17.02
2022-12-24T07:21:42.389Z,15.41
2022-12-24T07:22:22.303Z,15.16
2022-12-24T07:23:02.622Z,15.77
2022-12-24T07:23:43.314Z,15.34
2022-12-24T07:24:23.518Z,14.81
2022-12-24T07:25:03.347Z,14.29
2022-12-24T07:25:43.464Z,13.05
2022-12-24T07:26:23.328Z,13.75
2022-12-24T07:27:03.423Z,13.61
2022-12-24T07:27:44.294Z,13.29
2022-12-24T07:28:28.068Z,12.40
2022-12-24T07:29:08.327Z,13.21
2022-12-24T07:29:49.403Z,13.60
2022-12-24T07:30:30.333Z,12.95
2022-12-24T07:31:11.593Z,12.66
2022-12-24T07:31:52.380Z,12.34
2022-12-24T07:32:32.488Z,12.46
2022-12-24T07:33:13.323Z,12.68
2022-12-24T07:33:53.486Z,12.10
2022-12-24T07:34:33.311Z,12.57
2022-12-24T07:35:14.417Z,11.46
2022-12-24T07:35:56.015Z,11.44
2022-12-24T07:36:36.370Z,11.70
2022-12-24T07:37:16.353Z,13.31
2022-12-24T07:37:57.390Z,12.85
2022-12-24T07:38:39.279Z,12.18
2022-12-24T07:39:19.408Z,12.55
2022-12-24T07:39:59.306Z,12.71
2022-12-24T07:40:41.489Z,13.11
2022-12-24T07:41:22.275Z,13.04
2022-12-24T07:42:02.425Z,12.99
2022-12-24T07:42:43.274Z,13.74
2022-12-24T07:43:24.053Z,14.24
2022-12-24T07:44:04.286Z,13.39
2022-12-24T07:44:44.456Z,13.74
2022-12-24T07:45:25.316Z,14.24
2022-12-24T07:46:05.406Z,14.54
2022-12-24T07:46:46.422Z,15.27
2022-12-24T07:47:27.467Z,15.27
2022-12-24T07:48:07.249Z,15.43
2022-12-24T07:48:47.344Z,14.52
2022-12-24T07:49:28.270Z,14.52
2022-12-24T07:50:12.487Z,15.16
2022-12-24T07:50:53.382Z,15.18
2022-12-24T07:51:33.403Z,14.66
2022-12-24T07:52:14.311Z,14.29
2022-12-24T07:52:54.406Z,14.15
2022-12-24T07:53:37.274Z,14.19
2022-12-24T07:54:17.355Z,14.50
2022-12-24T07:54:58.262Z,15.32
2022-12-24T07:55:38.383Z,14.18
2022-12-24T07:56:21.321Z,13.86
2022-12-24T07:57:05.014Z,13.93
2022-12-24T07:57:46.543Z,14.57
2022-12-24T07:58:26.393Z,13.13
2022-12-24T07:59:07.270Z,13.77
2022-12-24T07:59:47.335Z,15.20
2022-12-24T08:00:28.338Z,15.40
2022-12-24T08:01:08.382Z,12.56
2022-12-24T08:01:49.387Z,12.95
2022-12-24T08:02:29.553Z,12.68
2022-12-24T08:03:09.425Z,11.54
2022-12-24T08:04:03.384Z,11.69
2022-12-24T08:04:44.297Z,12.50
2022-12-24T08:05:27.464Z,13.45
2022-12-24T08:06:10.247Z,12.70
2022-12-24T08:07:00.297Z,12.16
2022-12-24T08:07:54.250Z,11.95
2022-12-24T08:08:48.277Z,12.30
2022-12-24T08:09:47.313Z,12.21
2022-12-24T08:10:41.277Z,13.27
2022-12-24T08:11:35.272Z,14.27
2022-12-24T08:12:23.306Z,14.57
2022-12-24T08:12:57.334Z,14.56
2022-12-24T08:13:44.242Z,14.91
2022-12-24T08:14:18.308Z,14.90
2022-12-24T08:15:06.263Z,14.71
2022-12-24T08:15:40.362Z,14.31
2022-12-24T08:16:27.316Z,14.79
2022-12-24T08:17:01.312Z,13.30
2022-12-24T08:17:48.288Z,13.86
2022-12-24T08:18:22.295Z,14.14
2022-12-24T08:19:09.253Z,13.57
2022-12-24T08:19:43.361Z,12.84
2022-12-24T08:20:32.280Z,12.21
2022-12-24T08:21:06.311Z,12.59
2022-12-24T08:21:53.245Z,12.04
2022-12-24T08:22:27.328Z,12.11
2022-12-24T08:23:07.338Z,12.59
2022-12-24T08:23:48.474Z,12.27
2022-12-24T08:24:28.273Z,12.38
2022-12-24T08:25:08.303Z,12.19
2022-12-24T08:25:51.310Z,11.93
2022-12-24T08:26:31.373Z,11.90
2022-12-24T08:27:11.323Z,12.61
2022-12-24T08:27:51.529Z,11.40
2022-12-24T08:28:32.254Z,11.84
2022-12-24T08:29:13.312Z,11.81
2022-12-24T08:29:54.295Z,12.49
2022-12-24T08:30:35.382Z,11.89
2022-12-24T08:31:16.306Z,11.34
2022-12-24T08:31:56.361Z,11.21
2022-12-24T08:32:37.269Z,11.40
2022-12-24T08:33:18.486Z,12.29
2022-12-24T08:33:59.288Z,12.30
2022-12-24T08:34:39.297Z,11.81
2022-12-24T08:35:20.231Z,11.64
2022-12-24T08:36:02.803Z,11.79
2022-12-24T08:36:43.242Z,12.60
2022-12-24T08:37:24.378Z,12.80
2022-12-24T08:38:05.230Z,12.59
2022-12-24T08:38:45.386Z,11.75
2022-12-24T08:39:26.236Z,12.19
2022-12-24T08:40:06.284Z,12.26
2022-12-24T08:40:46.217Z,13.46
2022-12-24T08:41:26.311Z,12.05
2022-12-24T08:42:06.285Z,12.61
2022-12-24T08:42:46.500Z,11.95
2022-12-24T08:43:27.214Z,11.38
2022-12-24T08:44:07.375Z,10.98
2022-12-24T08:44:47.244Z,12.34
2022-12-24T08:45:28.420Z,13.07
2022-12-24T08:46:12.267Z,11.43
2022-12-24T08:46:52.297Z,11.06
2022-12-24T08:47:32.225Z,11.73
2022-12-24T08:48:14.595Z,11.50
2022-12-24T08:48:55.273Z,11.64
2022-12-24T08:49:35.821Z,11.40
2022-12-24T08:50:18.313Z,11.99
2022-12-24T08:50:58.451Z,11.63
2022-12-24T08:51:39.348Z,12.52
2022-12-24T08:52:19.279Z,23.96
2022-12-24T08:53:00.361Z,67.11
2022-12-24T08:53:42.378Z,85.90
2022-12-24T08:54:23.255Z,79.15
2022-12-24T08:55:03.419Z,112.14
2022-12-24T08:55:45.294Z,112.65
2022-12-24T08:56:28.625Z,48.99
2022-12-24T08:57:09.264Z,18.74
2022-12-24T08:57:49.422Z,12.27
2022-12-24T08:58:30.224Z,12.41
2022-12-24T08:59:10.299Z,11.76
2022-12-24T08:59:51.388Z,11.00
2022-12-24T09:00:31.255Z,11.48
2022-12-24T09:01:24.312Z,12.74
2022-12-24T09:02:04.483Z,12.66
2022-12-24T09:02:44.374Z,13.48
2022-12-24T09:03:28.084Z,14.25
2022-12-24T09:04:09.234Z,14.55
2022-12-24T09:04:50.450Z,13.98
2022-12-24T09:05:31.216Z,14.76
2022-12-24T09:06:14.755Z,15.13
2022-12-24T09:06:55.261Z,15.60
2022-12-24T09:07:35.272Z,15.74
2022-12-24T09:08:16.238Z,13.96
2022-12-24T09:08:56.291Z,14.44
2022-12-24T09:09:38.202Z,16.55
2022-12-24T09:10:19.471Z,17.34
2022-12-24T09:11:00.229Z,15.69
2022-12-24T09:11:42.298Z,15.39
2022-12-24T09:12:23.454Z,16.16
2022-12-24T09:13:04.345Z,16.59
2022-12-24T09:13:45.202Z,16.66
2022-12-24T09:14:26.301Z,17.73
2022-12-24T09:15:06.282Z,17.66
2022-12-24T09:15:46.328Z,16.45
2022-12-24T09:16:26.399Z,16.23
2022-12-24T09:17:06.398Z,16.92
2022-12-24T09:17:47.275Z,16.99
2022-12-24T09:18:27.579Z,16.48
2022-12-24T09:19:07.263Z,17.56
2022-12-24T09:19:47.292Z,18.92
2022-12-24T09:20:27.166Z,19.17
2022-12-24T09:21:11.475Z,20.15
2022-12-24T09:21:52.214Z,20.94
2022-12-24T09:22:33.392Z,19.35
2022-12-24T09:23:14.277Z,18.64